createdAt,value
2022-10-02T00:00:24.843Z,93926.39
2022-10-02T00:02:08.279Z,93930.08
2022-10-02T00:03:23.683Z,93931.55
2022-10-02T00:04:47.789Z,93927.50
2022-10-02T00:06:21.354Z,93928.04
2022-10-02T00:07:46.585Z,93934.21
2022-10-02T00:08:52.421Z,93932.21
2022-10-02T00:09:58.235Z,93935.68
2022-10-02T00:11:18.186Z,93938.21
2022-10-02T00:12:24.083Z,93939.64
2022-10-02T00:13:47.561Z,93942.14
2022-10-02T00:14:54.592Z,93946.59
2022-10-02T00:15:58.310Z,93943.20
2022-10-02T00:17:01.736Z,93946.14
2022-10-02T00:18:10.441Z,93941.33
2022-10-02T00:19:16.528Z,93947.45
2022-10-02T00:20:22.756Z,93952.76
2022-10-02T00:21:44.082Z,93953.67
2022-10-02T00:22:47.227Z,93960.48
2022-10-02T00:23:54.326Z,93960.83
2022-10-02T00:24:57.387Z,93964.85
2022-10-02T00:26:08.201Z,93966.23
2022-10-02T00:27:15.755Z,93970.69
2022-10-02T00:28:21.729Z,93972.73
2022-10-02T00:29:46.724Z,93966.43
2022-10-02T00:30:53.134Z,93967.30
2022-10-02T00:32:18.738Z,93973.35
2022-10-02T00:33:31.852Z,93975.44
2022-10-02T00:34:54.258Z,93982.08
2022-10-02T00:36:09.934Z,93985.05
2022-10-02T00:37:31.799Z,93989.30
2022-10-02T00:38:39.834Z,93993.17
2022-10-02T00:39:51.692Z,93993.08
2022-10-02T00:41:19.995Z,93988.97
2022-10-02T00:42:28.821Z,93981.86
2022-10-02T00:43:42.035Z,93981.91
2022-10-02T00:44:54.221Z,93981.30
2022-10-02T00:46:13.058Z,93978.66
2022-10-02T00:47:23.411Z,93981.40
2022-10-02T00:48:49.297Z,93982.17
2022-10-02T00:49:55.425Z,93984.30
2022-10-02T00:51:04.621Z,93989.55
2022-10-02T00:52:21.981Z,93990.55
2022-10-02T00:53:24.934Z,93990.19
2022-10-02T00:54:46.784Z,93993.14
2022-10-02T00:56:02.088Z,93994.25
2022-10-02T00:57:05.182Z,93994.70
2022-10-02T00:58:08.098Z,93996.54
2022-10-02T00:59:17.198Z,93995.52
2022-10-02T01:00:20.768Z,93994.06
2022-10-02T01:01:34.160Z,93990.42
2022-10-02T01:02:55.786Z,93990.77
2022-10-02T01:04:03.369Z,93990.69
2022-10-02T01:05:09.324Z,93994.73
2022-10-02T01:06:13.648Z,94002.08
2022-10-02T01:07:16.692Z,93993.05
2022-10-02T01:08:19.717Z,93996.66
2022-10-02T01:09:23.928Z,93996.55
2022-10-02T01:10:27.647Z,94004.73
2022-10-02T01:11:31.025Z,94003.02
2022-10-02T01:12:34.327Z,94007.98
2022-10-02T01:13:37.423Z,94007.61
2022-10-02T01:14:40.912Z,94013.16
2022-10-02T01:15:51.154Z,94013.99
2022-10-02T01:16:54.894Z,94010.14
2022-10-02T01:17:58.776Z,94010.28
2022-10-02T01:19:02.016Z,94015.16
2022-10-02T01:20:06.126Z,94019.06
2022-10-02T01:21:13.352Z,94013.93
2022-10-02T01:22:16.448Z,94014.61
2022-10-02T01:23:28.965Z,94014.58
2022-10-02T01:24:37.181Z,94013.14
2022-10-02T01:25:40.605Z,94009.11
2022-10-02T01:26:46.719Z,94008.27
2022-10-02T01:27:50.714Z,94009.53
2022-10-02T01:28:54.021Z,94002.48
2022-10-02T01:30:08.170Z,94004.89
2022-10-02T01:31:12.789Z,94001.93
2022-10-02T01:32:16.163Z,94002.28
2022-10-02T01:33:19.826Z,94007.27
2022-10-02T01:34:24.202Z,94002.20
2022-10-02T01:35:33.971Z,94008.29
2022-10-02T01:36:40.205Z,94009.85
2022-10-02T01:37:44.493Z,94007.25
2022-10-02T01:38:48.792Z,94010.23
2022-10-02T01:39:52.621Z,94014.14
2022-10-02T01:40:55.728Z,94016.91
2022-10-02T01:41:58.818Z,94020.65
2022-10-02T01:43:10.092Z,94026.50
2022-10-02T01:44:14.095Z,94015.23
2022-10-02T01:45:17.541Z,94025.70
2022-10-02T01:46:23.192Z,94029.21
2022-10-02T01:47:33.475Z,94028.89
2022-10-02T01:48:40.163Z,94029.77
2022-10-02T01:49:56.507Z,94029.98
2022-10-02T01:51:13.364Z,94028.29
2022-10-02T01:52:33.980Z,94031.63
2022-10-02T01:53:45.418Z,94035.83
2022-10-02T01:54:51.785Z,94038.79
2022-10-02T01:56:05.255Z,94042.89
2022-10-02T01:57:26.677Z,94042.54
2022-10-02T01:58:55.637Z,94037.84
2022-10-02T02:00:13.418Z,94030.51
2022-10-02T02:01:36.838Z,94029.38
2022-10-02T02:02:48.355Z,94026.66
2022-10-02T02:03:55.121Z,94021.62
2022-10-02T02:05:03.947Z,94021.30
2022-10-02T02:06:16.543Z,94021.98
2022-10-02T02:07:28.633Z,94029.24
2022-10-02T02:08:37.877Z,94030.98
2022-10-02T02:09:50.613Z,94044.91
2022-10-02T02:10:56.667Z,94046.23
2022-10-02T02:12:08.988Z,94044.65
2022-10-02T02:13:21.490Z,94049.00
2022-10-02T02:14:45.708Z,94041.73
2022-10-02T02:16:01.698Z,94045.70
2022-10-02T02:17:19.507Z,94054.85
2022-10-02T02:18:32.264Z,94052.94
2022-10-02T02:19:39.622Z,94051.73
2022-10-02T02:20:46.648Z,94053.48
2022-10-02T02:21:53.454Z,94055.44
2022-10-02T02:23:00.222Z,94053.00
2022-10-02T02:24:07.172Z,94049.02
2022-10-02T02:25:12.878Z,94057.05
2022-10-02T02:26:20.097Z,94054.30
2022-10-02T02:27:26.065Z,94057.92
2022-10-02T02:28:33.520Z,94063.95
2022-10-02T02:29:40.641Z,94066.00
2022-10-02T02:30:46.972Z,94067.64
2022-10-02T02:31:51.858Z,94065.77
2022-10-02T02:32:59.588Z,94068.46
2022-10-02T02:34:05.440Z,94064.88
2022-10-02T02:35:14.468Z,94059.19
2022-10-02T02:36:19.787Z,94062.61
2022-10-02T02:37:25.617Z,94064.72
2022-10-02T02:38:33.910Z,94060.73
2022-10-02T02:39:46.348Z,94061.00
2022-10-02T02:40:49.559Z,94064.04
2022-10-02T02:41:55.639Z,94072.62
2022-10-02T02:43:02.200Z,94077.59
2022-10-02T02:44:10.493Z,94080.26
2022-10-02T02:45:16.704Z,94083.77
2022-10-02T02:46:29.921Z,94088.23
2022-10-02T02:47:36.157Z,94092.76
2022-10-02T02:48:41.522Z,94090.14
2022-10-02T02:49:44.605Z,94096.79
2022-10-02T02:50:49.589Z,94093.17
2022-10-02T02:51:54.602Z,94098.75
2022-10-02T02:52:57.728Z,94102.27
2022-10-02T02:54:16.040Z,94102.89
2022-10-02T02:55:22.162Z,94103.21
2022-10-02T02:56:27.624Z,94099.55
2022-10-02T02:57:35.473Z,94095.55
2022-10-02T02:58:43.794Z,94097.84
2022-10-02T02:59:49.506Z,94095.42
2022-10-02T03:00:52.753Z,94096.85
2022-10-02T03:01:55.966Z,94098.80
2022-10-02T03:02:59.200Z,94100.04
2022-10-02T03:04:02.446Z,94106.08
2022-10-02T03:05:11.999Z,94109.33
2022-10-02T03:06:15.664Z,94108.31
2022-10-02T03:07:18.898Z,94113.71
2022-10-02T03:08:29.692Z,94110.98
2022-10-02T03:09:33.765Z,94112.64
2022-10-02T03:10:56.668Z,94111.96
2022-10-02T03:12:18.535Z,94108.38
2022-10-02T03:13:26.321Z,94110.58
2022-10-02T03:14:53.529Z,94108.06
2022-10-02T03:15:56.591Z,94108.39
2022-10-02T03:17:02.714Z,94110.76
2022-10-02T03:18:08.683Z,94112.19
2022-10-02T03:19:20.670Z,94109.66
2022-10-02T03:20:42.471Z,94103.48
2022-10-02T03:21:55.849Z,94097.91
2022-10-02T03:23:21.909Z,94093.00
2022-10-02T03:24:30.202Z,94096.83
2022-10-02T03:25:40.448Z,94106.38
2022-10-02T03:26:53.073Z,94106.48
2022-10-02T03:28:02.268Z,94106.46
2022-10-02T03:29:09.119Z,94102.91
2022-10-02T03:30:13.449Z,94107.48
2022-10-02T03:31:18.670Z,94107.80
2022-10-02T03:32:23.362Z,94107.98
2022-10-02T03:33:28.104Z,94107.40
2022-10-02T03:34:32.782Z,94109.64
2022-10-02T03:35:35.862Z,94111.19
2022-10-02T03:36:39.491Z,94106.02
2022-10-02T03:37:44.381Z,94099.33
2022-10-02T03:39:12.682Z,94099.80
2022-10-02T03:40:14.656Z,94099.91
2022-10-02T03:41:17.830Z,94099.48
2022-10-02T03:42:25.644Z,94099.64
2022-10-02T03:43:29.882Z,94096.25
2022-10-02T03:44:35.714Z,94100.27
2022-10-02T03:45:50.934Z,94102.75
2022-10-02T03:46:55.200Z,94100.60
2022-10-02T03:47:58.439Z,94100.50
2022-10-02T03:49:01.547Z,94098.98
2022-10-02T03:50:04.817Z,94095.98
2022-10-02T03:51:07.911Z,94095.95
2022-10-02T03:52:15.648Z,94097.33
2022-10-02T03:53:22.978Z,94096.58
2022-10-02T03:54:31.751Z,94094.59
2022-10-02T03:55:38.168Z,94092.67
2022-10-02T03:56:45.027Z,94088.17
2022-10-02T03:57:48.041Z,94082.27
2022-10-02T03:58:53.164Z,94079.30
2022-10-02T04:00:14.698Z,94089.34
2022-10-02T04:01:21.195Z,94091.77
2022-10-02T04:02:35.311Z,94095.20
2022-10-02T04:03:48.623Z,94095.65
2022-10-02T04:04:56.300Z,94092.05
2022-10-02T04:05:59.488Z,94083.48
2022-10-02T04:07:07.567Z,94082.52
2022-10-02T04:08:14.246Z,94075.75
2022-10-02T04:09:26.810Z,94073.99
2022-10-02T04:10:33.179Z,94076.92
2022-10-02T04:11:53.690Z,94079.69
2022-10-02T04:13:04.149Z,94077.42
2022-10-02T04:14:13.207Z,94075.35
2022-10-02T04:15:20.212Z,94074.29
2022-10-02T04:16:42.123Z,94068.92
2022-10-02T04:18:04.574Z,94076.91
2022-10-02T04:19:34.366Z,94073.80
2022-10-02T04:20:48.395Z,94076.73
2022-10-02T04:22:11.192Z,94081.98
2022-10-02T04:23:14.656Z,94085.03
2022-10-02T04:24:17.835Z,94087.13
2022-10-02T04:25:22.303Z,94093.16
2022-10-02T04:26:30.722Z,94087.46
2022-10-02T04:27:42.234Z,94084.77
2022-10-02T04:28:51.535Z,94086.91
2022-10-02T04:29:58.459Z,94082.52
2022-10-02T04:31:02.971Z,94083.13
2022-10-02T04:32:11.014Z,94083.19
2022-10-02T04:33:17.928Z,94083.12
2022-10-02T04:34:21.040Z,94088.07
2022-10-02T04:35:30.416Z,94089.14
2022-10-02T04:36:41.186Z,94092.61
2022-10-02T04:38:03.310Z,94093.41
2022-10-02T04:39:09.508Z,94095.29
2022-10-02T04:40:31.548Z,94090.04
2022-10-02T04:41:43.998Z,94089.05
2022-10-02T04:42:53.105Z,94087.27
2022-10-02T04:44:10.062Z,94085.73
2022-10-02T04:45:27.152Z,94084.14
2022-10-02T04:46:48.732Z,94088.61
2022-10-02T04:48:03.957Z,94087.50
2022-10-02T04:49:16.517Z,94088.57
2022-10-02T04:50:19.592Z,94090.86
2022-10-02T04:51:37.107Z,94085.05
2022-10-02T04:52:55.443Z,94084.45
2022-10-02T04:54:05.791Z,94088.23
2022-10-02T04:55:18.088Z,94091.72
2022-10-02T04:56:36.873Z,94089.84
2022-10-02T04:57:40.197Z,94092.35
2022-10-02T04:59:02.305Z,94088.90
2022-10-02T05:00:06.109Z,94087.80
2022-10-02T05:01:36.818Z,94088.32
2022-10-02T05:02:58.960Z,94089.33
2022-10-02T05:04:14.288Z,94084.20
2022-10-02T05:05:35.212Z,94083.05
2022-10-02T05:06:45.788Z,94084.10
2022-10-02T05:08:07.952Z,94087.53
2022-10-02T05:09:28.552Z,94092.84
2022-10-02T05:10:44.422Z,94091.85
2022-10-02T05:11:56.407Z,94085.79
2022-10-02T05:13:11.573Z,94090.27
2022-10-02T05:14:24.234Z,94088.63
2022-10-02T05:15:45.344Z,94091.44
2022-10-02T05:17:07.041Z,94091.02
2022-10-02T05:18:11.728Z,94089.15
2022-10-02T05:19:20.704Z,94092.68
2022-10-02T05:20:44.153Z,94095.73
2022-10-02T05:21:58.787Z,94092.91
2022-10-02T05:23:17.094Z,94091.94
2022-10-02T05:24:44.762Z,94085.80
2022-10-02T05:26:14.235Z,94078.90
2022-10-02T05:27:23.540Z,94072.60
2022-10-02T05:28:38.305Z,94062.55
2022-10-02T05:30:00.442Z,94079.66
2022-10-02T05:31:13.335Z,94071.37
2022-10-02T05:32:42.564Z,94068.60
2022-10-02T05:33:58.253Z,94078.45
2022-10-02T05:35:13.336Z,94078.86
2022-10-02T05:36:25.965Z,94076.08
2022-10-02T05:37:42.018Z,94080.91
2022-10-02T05:38:57.730Z,94076.70
2022-10-02T05:40:10.703Z,94071.33
2022-10-02T05:41:28.059Z,94064.36
2022-10-02T05:42:41.114Z,94073.80
2022-10-02T05:44:12.312Z,94081.83
2022-10-02T05:45:15.445Z,94087.83
2022-10-02T05:46:26.283Z,94086.15
2022-10-02T05:47:31.262Z,94086.05
2022-10-02T05:48:40.009Z,94091.86
2022-10-02T05:50:12.779Z,94086.15
2022-10-02T05:51:42.328Z,94088.78
2022-10-02T05:52:45.507Z,94090.27
2022-10-02T05:53:48.831Z,94081.26
2022-10-02T05:54:58.134Z,94084.09
2022-10-02T05:56:12.482Z,94092.52
2022-10-02T05:57:35.893Z,94092.41
2022-10-02T05:58:45.377Z,94098.56
2022-10-02T06:00:10.866Z,94099.84
2022-10-02T06:01:39.996Z,94099.95
2022-10-02T06:02:52.512Z,94106.59
2022-10-02T06:04:06.906Z,94102.54
2022-10-02T06:05:17.437Z,94108.38
2022-10-02T06:06:27.812Z,94105.63
2022-10-02T06:07:33.945Z,94101.84
2022-10-02T06:08:41.461Z,94098.35
2022-10-02T06:09:44.967Z,94094.89
2022-10-02T06:10:50.921Z,94096.23
2022-10-02T06:11:56.315Z,94090.69
2022-10-02T06:13:05.112Z,94095.29
2022-10-02T06:14:15.402Z,94097.16
2022-10-02T06:15:24.773Z,94101.58
2022-10-02T06:16:33.321Z,94098.02
2022-10-02T06:17:47.989Z,94087.46
2022-10-02T06:18:57.474Z,94089.30
2022-10-02T06:20:13.479Z,94094.63
2022-10-02T06:21:19.652Z,94098.09
2022-10-02T06:22:26.169Z,94099.51
2022-10-02T06:23:35.932Z,94102.36
2022-10-02T06:24:47.334Z,94107.73
2022-10-02T06:25:56.516Z,94107.00
2022-10-02T06:27:11.163Z,94112.16
2022-10-02T06:28:17.390Z,94105.48
2022-10-02T06:29:46.727Z,94102.45
2022-10-02T06:30:52.971Z,94104.27
2022-10-02T06:32:14.716Z,94106.27
2022-10-02T06:33:25.427Z,94103.94
2022-10-02T06:34:28.892Z,94099.84
2022-10-02T06:35:43.548Z,94104.54
2022-10-02T06:37:03.875Z,94116.67
2022-10-02T06:38:14.699Z,94117.35
2022-10-02T06:39:17.841Z,94109.77
2022-10-02T06:40:33.207Z,94106.89
2022-10-02T06:41:54.662Z,94106.91
2022-10-02T06:43:10.411Z,94102.17
2022-10-02T06:44:26.827Z,94111.88
2022-10-02T06:45:42.851Z,94109.05
2022-10-02T06:46:58.437Z,94108.90
2022-10-02T06:48:29.766Z,94112.89
2022-10-02T06:49:52.872Z,94117.02
2022-10-02T06:51:11.151Z,94118.06
2022-10-02T06:52:22.949Z,94119.66
2022-10-02T06:53:38.886Z,94117.13
2022-10-02T06:54:42.075Z,94119.34
2022-10-02T06:55:45.198Z,94115.31
2022-10-02T06:56:48.442Z,94115.11
2022-10-02T06:58:09.025Z,94117.73
2022-10-02T06:59:12.473Z,94096.95
2022-10-02T07:00:19.822Z,94116.91
2022-10-02T07:01:40.529Z,94111.00
2022-10-02T07:02:59.952Z,94114.38
2022-10-02T07:04:25.371Z,94115.92
2022-10-02T07:05:31.332Z,94115.55
2022-10-02T07:06:45.551Z,94112.88
2022-10-02T07:07:55.453Z,94101.18
2022-10-02T07:09:19.259Z,94112.25
2022-10-02T07:10:36.876Z,94118.56
2022-10-02T07:11:59.096Z,94125.19
2022-10-02T07:13:23.879Z,94128.13
2022-10-02T07:14:42.546Z,94128.09
2022-10-02T07:15:51.912Z,94114.61
2022-10-02T07:17:22.147Z,94130.37
2022-10-02T07:18:44.044Z,94125.98
2022-10-02T07:20:03.651Z,94129.67
2022-10-02T07:21:15.912Z,94136.48
2022-10-02T07:22:43.960Z,94135.14
2022-10-02T07:23:48.482Z,94118.35
2022-10-02T07:25:10.585Z,94126.98
2022-10-02T07:26:24.429Z,94123.96
2022-10-02T07:27:33.459Z,94124.52
2022-10-02T07:28:39.823Z,94130.61
2022-10-02T07:29:56.483Z,94124.88
2022-10-02T07:31:07.764Z,94125.70
2022-10-02T07:32:11.973Z,94124.40
2022-10-02T07:33:30.234Z,94124.91
2022-10-02T07:34:42.516Z,94120.27
2022-10-02T07:35:50.850Z,94124.83
2022-10-02T07:37:10.522Z,94125.48
2022-10-02T07:38:20.681Z,94127.66
2022-10-02T07:39:27.057Z,94128.98
2022-10-02T07:40:44.286Z,94129.07
2022-10-02T07:42:00.465Z,94127.39
2022-10-02T07:43:21.432Z,94128.01
2022-10-02T07:44:42.058Z,94130.38
2022-10-02T07:45:50.885Z,94133.25
2022-10-02T07:47:09.528Z,94127.92
2022-10-02T07:48:48.177Z,94131.27
2022-10-02T07:50:08.301Z,94127.56
2022-10-02T07:51:44.117Z,94127.30
2022-10-02T07:53:07.612Z,94124.83
2022-10-02T07:54:22.594Z,94131.27
2022-10-02T07:55:31.418Z,94128.60
2022-10-02T07:56:37.992Z,94126.62
2022-10-02T07:58:10.846Z,94122.36
2022-10-02T07:59:16.406Z,94125.48
2022-10-02T08:00:20.715Z,94119.83
2022-10-02T08:01:29.121Z,94119.73
2022-10-02T08:02:40.544Z,94116.42
2022-10-02T08:03:48.709Z,94117.08
2022-10-02T08:04:56.061Z,94114.59
2022-10-02T08:06:00.814Z,94115.84
2022-10-02T08:07:14.127Z,94117.50
2022-10-02T08:08:35.647Z,94120.88
2022-10-02T08:09:47.770Z,94112.31
2022-10-02T08:10:56.963Z,94116.79
2022-10-02T08:12:03.896Z,94122.37
2022-10-02T08:13:20.800Z,94124.05
2022-10-02T08:14:43.313Z,94125.27
2022-10-02T08:15:48.626Z,94129.94
2022-10-02T08:16:53.359Z,94124.58
2022-10-02T08:18:10.807Z,94130.46
2022-10-02T08:19:30.105Z,94119.73
2022-10-02T08:20:35.863Z,94124.23
2022-10-02T08:21:46.637Z,94125.79
2022-10-02T08:22:59.085Z,94125.64
2022-10-02T08:24:11.086Z,94122.97
2022-10-02T08:25:22.884Z,94124.06
2022-10-02T08:26:43.673Z,94128.35
2022-10-02T08:27:52.717Z,94127.65
2022-10-02T08:29:01.791Z,94121.73
2022-10-02T08:30:06.972Z,94117.25
2022-10-02T08:31:14.534Z,94110.88
2022-10-02T08:32:17.984Z,94112.81
2022-10-02T08:33:33.383Z,94117.11
2022-10-02T08:34:36.722Z,94115.38
2022-10-02T08:35:45.007Z,94113.45
2022-10-02T08:37:02.530Z,94113.86
2022-10-02T08:38:28.035Z,94117.45
2022-10-02T08:39:54.342Z,94114.25
2022-10-02T08:41:05.226Z,94118.73
2022-10-02T08:42:14.359Z,94110.69
2022-10-02T08:43:29.913Z,94121.68
2022-10-02T08:44:36.606Z,94121.64
2022-10-02T08:45:42.860Z,94123.50
2022-10-02T08:47:04.940Z,94127.43
2022-10-02T08:48:25.547Z,94127.48
2022-10-02T08:49:38.921Z,94126.63
2022-10-02T08:51:02.078Z,94128.95
2022-10-02T08:52:06.080Z,94128.30
2022-10-02T08:53:28.216Z,94127.85
2022-10-02T08:54:56.849Z,94127.88
2022-10-02T08:56:06.063Z,94129.14
2022-10-02T08:57:21.379Z,94132.50
2022-10-02T08:58:28.900Z,94130.73
2022-10-02T08:59:32.100Z,94131.64
2022-10-02T09:00:47.526Z,94133.88
2022-10-02T09:01:59.493Z,94134.77
2022-10-02T09:03:06.302Z,94140.05
2022-10-02T09:04:18.567Z,94135.31
2022-10-02T09:05:39.838Z,94138.86
2022-10-02T09:06:42.799Z,94139.02
2022-10-02T09:08:08.494Z,94134.49
2022-10-02T09:09:39.609Z,94134.88
2022-10-02T09:10:46.038Z,94132.94
2022-10-02T09:12:04.929Z,94129.58
2022-10-02T09:13:23.610Z,94134.41
2022-10-02T09:15:08.814Z,94134.73
2022-10-02T09:16:15.154Z,94129.05
2022-10-02T09:17:36.803Z,94126.91
2022-10-02T09:18:51.634Z,94131.44
2022-10-02T09:20:13.942Z,94132.75
2022-10-02T09:21:43.297Z,94133.29
2022-10-02T09:22:52.651Z,94124.94
2022-10-02T09:24:17.847Z,94127.98
2022-10-02T09:25:39.187Z,94127.62
2022-10-02T09:27:07.831Z,94126.32
2022-10-02T09:28:29.118Z,94123.47
2022-10-02T09:29:41.676Z,94123.09
2022-10-02T09:30:48.143Z,94123.88
2022-10-02T09:32:14.236Z,94124.67
2022-10-02T09:34:12.830Z,94120.85
2022-10-02T09:35:34.368Z,94118.20
2022-10-02T09:37:03.293Z,94118.35
2022-10-02T09:38:22.404Z,94120.27
2022-10-02T09:39:32.817Z,94122.13
2022-10-02T09:40:50.980Z,94122.84
2022-10-02T09:42:15.163Z,94119.61
2022-10-02T09:43:25.066Z,94111.67
2022-10-02T09:44:40.431Z,94123.98
2022-10-02T09:45:46.725Z,94121.21
2022-10-02T09:47:02.321Z,94123.84
2022-10-02T09:48:25.855Z,94120.05
2022-10-02T09:49:32.329Z,94115.88
2022-10-02T09:50:55.764Z,94110.92
2022-10-02T09:52:09.871Z,94113.83
2022-10-02T09:53:31.640Z,94117.80
2022-10-02T09:54:56.609Z,94113.73
2022-10-02T09:56:08.652Z,94112.79
2022-10-02T09:57:31.932Z,94109.39
2022-10-02T09:58:56.628Z,94109.17
2022-10-02T10:00:16.227Z,94105.30
2022-10-02T10:01:46.990Z,94103.83
2022-10-02T10:03:14.634Z,94106.02
2022-10-02T10:04:47.822Z,94107.19
2022-10-02T10:06:51.470Z,94103.48
2022-10-02T10:07:54.888Z,94101.98
2022-10-02T10:09:21.611Z,94104.09
2022-10-02T10:10:31.434Z,94104.41
2022-10-02T10:11:57.641Z,94101.55
2022-10-02T10:13:33.981Z,94102.46
2022-10-02T10:14:50.503Z,94099.83
2022-10-02T10:16:26.807Z,94098.64
2022-10-02T10:18:16.777Z,94093.65
2022-10-02T10:19:30.231Z,94096.39
2022-10-02T10:20:48.481Z,94096.39
2022-10-02T10:22:17.710Z,94093.11
2022-10-02T10:23:31.571Z,94093.07
2022-10-02T10:24:43.726Z,94088.98
2022-10-02T10:26:07.663Z,94094.02
2022-10-02T10:27:31.099Z,94092.49
2022-10-02T10:31:04.803Z,94089.31
2022-10-02T10:31:18.363Z,94087.85
2022-10-02T10:32:31.194Z,94078.70
2022-10-02T10:34:16.072Z,94084.06
2022-10-02T10:35:29.061Z,94088.11
2022-10-02T10:36:59.963Z,94086.05
2022-10-02T10:40:04.333Z,94083.96
2022-10-02T10:41:15.609Z,94083.17
2022-10-02T10:43:03.087Z,94086.39
2022-10-02T10:44:13.477Z,94089.63
2022-10-02T10:45:22.364Z,94087.48
2022-10-02T10:46:44.201Z,94085.23
2022-10-02T10:47:59.687Z,94081.55
2022-10-02T10:49:13.630Z,94078.15
2022-10-02T10:50:56.766Z,94080.86
2022-10-02T10:52:28.102Z,94073.80
2022-10-02T10:53:45.903Z,94074.48
2022-10-02T10:54:55.047Z,94070.92
2022-10-02T10:55:59.339Z,94074.83
2022-10-02T10:57:08.933Z,94074.89
2022-10-02T10:58:15.352Z,94069.08
2022-10-02T10:59:25.550Z,94064.05
2022-10-02T11:00:31.511Z,94063.67
2022-10-02T11:02:03.451Z,94062.98
2022-10-02T11:03:12.581Z,94061.65
2022-10-02T11:04:21.450Z,94063.81
2022-10-02T11:05:36.817Z,94060.85
2022-10-02T11:06:58.897Z,94063.02
2022-10-02T11:08:21.322Z,94064.04
2022-10-02T11:09:30.387Z,94065.72
2022-10-02T11:10:33.638Z,94065.99
2022-10-02T11:11:39.732Z,94058.59
2022-10-02T11:12:50.822Z,94055.77
2022-10-02T11:13:54.817Z,94053.80
2022-10-02T11:15:01.200Z,94052.95
2022-10-02T11:16:06.710Z,94056.39
2022-10-02T11:17:37.968Z,94051.59
2022-10-02T11:19:07.871Z,94053.94
2022-10-02T11:20:26.755Z,94046.36
2022-10-02T11:21:48.835Z,94050.84
2022-10-02T11:23:10.386Z,94047.02
2022-10-02T11:24:16.610Z,94049.83
2022-10-02T11:25:29.005Z,94049.16
2022-10-02T11:26:51.072Z,94046.89
2022-10-02T11:28:00.805Z,94045.96
2022-10-02T11:29:22.419Z,94043.66
2022-10-02T11:30:32.726Z,94049.39
2022-10-02T11:31:54.039Z,94042.19
2022-10-02T11:33:07.351Z,94043.31
2022-10-02T11:34:40.461Z,94037.91
2022-10-02T11:35:53.176Z,94041.97
2022-10-02T11:37:06.467Z,94039.39
2022-10-02T11:38:22.082Z,94039.74
2022-10-02T11:39:27.886Z,94036.64
2022-10-02T11:40:42.321Z,94038.31
2022-10-02T11:41:54.472Z,94034.09
2022-10-02T11:43:16.417Z,94033.93
2022-10-02T11:44:40.666Z,94033.98
2022-10-02T11:46:04.124Z,94032.30
2022-10-02T11:47:35.206Z,94025.11
2022-10-02T11:48:57.308Z,94025.23
2022-10-02T11:50:37.447Z,94025.55
2022-10-02T11:51:48.533Z,94023.80
2022-10-02T11:53:19.029Z,94026.11
2022-10-02T11:54:37.592Z,94025.64
2022-10-02T11:55:52.622Z,94025.01
2022-10-02T11:57:14.505Z,94021.07
2022-10-02T11:58:23.371Z,94023.29
2022-10-02T11:59:51.602Z,94015.48
2022-10-02T12:01:05.946Z,94014.21
2022-10-02T12:02:16.485Z,94017.20
2022-10-02T12:03:28.508Z,94018.53
2022-10-02T12:04:52.612Z,94016.21
2022-10-02T12:06:13.326Z,94017.08
2022-10-02T12:07:25.750Z,94019.63
2022-10-02T12:08:36.960Z,94019.06
2022-10-02T12:09:58.873Z,94028.35
2022-10-02T12:11:11.913Z,94025.81
2022-10-02T12:12:15.048Z,94024.53
2022-10-02T12:13:24.829Z,94024.38
2022-10-02T12:14:30.602Z,94027.56
2022-10-02T12:15:34.441Z,94027.94
2022-10-02T12:16:40.921Z,94029.46
2022-10-02T12:17:57.846Z,94029.63
2022-10-02T12:19:07.141Z,94030.46
2022-10-02T12:20:41.108Z,94026.91
2022-10-02T12:22:06.532Z,94023.84
2022-10-02T12:23:34.357Z,94016.05
2022-10-02T12:25:02.940Z,94016.42
2022-10-02T12:26:31.911Z,94019.39
2022-10-02T12:27:47.636Z,94015.17
2022-10-02T12:29:07.297Z,94011.98
2022-10-02T12:30:15.841Z,94011.11
2022-10-02T12:31:39.901Z,94010.48
2022-10-02T12:32:56.366Z,94012.96
2022-10-02T12:34:22.737Z,94010.54
2022-10-02T12:35:36.767Z,94011.10
2022-10-02T12:36:42.915Z,94007.53
2022-10-02T12:37:55.455Z,94008.38
2022-10-02T12:39:12.424Z,93995.52
2022-10-02T12:40:22.117Z,94005.78
2022-10-02T12:41:35.787Z,94003.54
2022-10-02T12:42:43.120Z,93999.80
2022-10-02T12:43:46.418Z,93997.17
2022-10-02T12:45:11.850Z,93998.78
2022-10-02T12:46:27.704Z,93991.80
2022-10-02T12:47:32.942Z,93993.84
2022-10-02T12:48:55.072Z,93989.41
2022-10-02T12:50:17.564Z,93989.39
2022-10-02T12:51:48.540Z,93991.64
2022-10-02T12:53:04.563Z,93988.94
2022-10-02T12:54:23.047Z,93986.02
2022-10-02T12:55:35.493Z,93983.23
2022-10-02T12:56:56.043Z,93983.83
2022-10-02T12:58:22.873Z,93985.35
2022-10-02T12:59:38.235Z,93986.09
2022-10-02T13:00:41.335Z,93979.99
2022-10-02T13:01:44.782Z,93979.19
2022-10-02T13:03:05.704Z,93976.27
2022-10-02T13:04:24.915Z,93969.11
2022-10-02T13:05:32.316Z,93971.96
2022-10-02T13:07:04.308Z,93969.15
2022-10-02T13:08:26.018Z,93971.32
2022-10-02T13:09:37.994Z,93973.73
2022-10-02T13:10:46.263Z,93974.77
2022-10-02T13:12:08.077Z,93972.45
2022-10-02T13:13:20.223Z,93963.84
2022-10-02T13:14:26.945Z,93961.70
2022-10-02T13:15:34.399Z,93961.63
2022-10-02T13:16:46.990Z,93962.45
2022-10-02T13:17:58.671Z,93968.10
2022-10-02T13:19:11.846Z,93966.11
2022-10-02T13:20:38.050Z,93966.11
2022-10-02T13:21:41.054Z,93956.98
2022-10-02T13:22:44.184Z,93960.62
2022-10-02T13:23:48.097Z,93962.38
2022-10-02T13:25:21.367Z,93964.23
2022-10-02T13:26:41.387Z,93964.36
2022-10-02T13:27:49.781Z,93967.31
2022-10-02T13:29:13.116Z,93969.24
2022-10-02T13:30:25.566Z,93968.86
2022-10-02T13:31:36.028Z,93969.68
2022-10-02T13:32:48.476Z,93971.55
2022-10-02T13:34:01.009Z,93977.73
2022-10-02T13:35:10.209Z,93984.14
2022-10-02T13:36:45.320Z,93979.70
2022-10-02T13:37:48.417Z,93967.17
2022-10-02T13:38:57.769Z,93954.02
2022-10-02T13:40:04.308Z,93943.65
2022-10-02T13:41:07.401Z,93927.68
2022-10-02T13:42:25.710Z,93933.50
2022-10-02T13:43:58.296Z,93934.40
2022-10-02T13:45:12.316Z,93940.67
2022-10-02T13:46:15.476Z,93938.26
2022-10-02T13:47:37.117Z,93937.83
2022-10-02T13:48:55.355Z,93941.98
2022-10-02T13:50:17.758Z,93944.77
2022-10-02T13:51:26.748Z,93952.88
2022-10-02T13:52:29.793Z,93956.93
2022-10-02T13:53:51.762Z,93962.52
2022-10-02T13:55:02.628Z,93953.08
2022-10-02T13:56:05.768Z,93955.30
2022-10-02T13:57:23.156Z,93952.15
2022-10-02T13:58:28.219Z,93952.05
2022-10-02T13:59:44.236Z,93949.88
2022-10-02T14:00:53.135Z,93943.60
2022-10-02T14:01:59.713Z,93944.02
2022-10-02T14:03:02.846Z,93951.18
2022-10-02T14:04:06.189Z,93950.90
2022-10-02T14:05:11.826Z,93958.25
2022-10-02T14:06:42.378Z,93961.41
2022-10-02T14:07:58.378Z,93966.52
2022-10-02T14:09:23.762Z,93969.85
2022-10-02T14:10:33.157Z,93970.70
2022-10-02T14:11:56.531Z,93971.16
2022-10-02T14:13:18.830Z,93972.11
2022-10-02T14:14:28.501Z,93974.04
2022-10-02T14:15:31.599Z,93967.96
2022-10-02T14:16:50.516Z,93971.01
2022-10-02T14:18:13.192Z,93970.35
2022-10-02T14:19:35.573Z,93973.08
2022-10-02T14:20:41.653Z,93973.23
2022-10-02T14:21:47.726Z,93975.08
2022-10-02T14:23:02.223Z,93966.85
2022-10-02T14:24:44.512Z,93957.20
2022-10-02T14:25:48.785Z,93950.14
2022-10-02T14:26:56.825Z,93950.36
2022-10-02T14:28:19.495Z,93954.52
2022-10-02T14:29:35.472Z,93956.80